createdAt,value
2023-03-18T00:00:01.009Z,22.73
2023-03-18T00:02:49.999Z,14.43
2023-03-18T00:05:38.828Z,16.40
2023-03-18T00:08:27.566Z,16.90
2023-03-18T00:11:20.138Z,14.40
2023-03-18T00:14:09.960Z,13.90
2023-03-18T00:16:58.742Z,13.17
2023-03-18T00:19:48.480Z,15.03
2023-03-18T00:22:39.133Z,14.90
2023-03-18T00:25:28.352Z,15.90
2023-03-18T00:28:18.984Z,14.07
2023-03-18T00:31:09.687Z,12.13
2023-03-18T00:33:58.953Z,13.73
2023-03-18T00:36:50.968Z,13.97
2023-03-18T00:39:44.390Z,13.57
2023-03-18T00:42:39.149Z,12.73
2023-03-18T00:45:30.334Z,14.87
2023-03-18T00:48:19.698Z,16.30
2023-03-18T00:51:08.795Z,13.17
2023-03-18T00:54:02.286Z,12.33
2023-03-18T00:56:51.039Z,14.20
2023-03-18T00:59:39.793Z,14.30
2023-03-18T01:02:30.240Z,12.53
2023-03-18T01:05:19.555Z,13.60
2023-03-18T01:08:08.497Z,13.77
2023-03-18T01:10:57.707Z,13.73
2023-03-18T01:13:46.689Z,13.47
2023-03-18T01:16:35.511Z,13.77
2023-03-18T01:19:26.783Z,11.87
2023-03-18T01:22:16.105Z,13.53
2023-03-18T01:25:09.971Z,12.37
2023-03-18T01:28:00.033Z,13.33
2023-03-18T01:30:49.196Z,9.97
2023-03-18T01:33:41.849Z,12.20
2023-03-18T01:36:32.106Z,12.37
2023-03-18T01:39:27.616Z,15.33
2023-03-18T01:42:18.246Z,11.60
2023-03-18T01:45:18.310Z,12.20
2023-03-18T01:48:14.460Z,11.73
2023-03-18T01:51:07.348Z,11.37
2023-03-18T01:54:00.668Z,11.57
2023-03-18T01:56:50.635Z,12.37
2023-03-18T01:59:43.000Z,10.27
2023-03-18T02:02:32.273Z,11.03
2023-03-18T02:08:12.918Z,10.97
2023-03-18T02:11:04.190Z,13.17
2023-03-18T02:13:53.870Z,13.97
2023-03-18T02:16:46.509Z,10.00
2023-03-18T02:19:50.783Z,12.27
2023-03-18T02:22:44.880Z,12.07
2023-03-18T02:25:40.355Z,9.60
2023-03-18T02:28:33.123Z,13.37
2023-03-18T02:31:23.069Z,12.33
2023-03-18T02:34:13.505Z,9.60
2023-03-18T02:37:04.303Z,8.47
2023-03-18T02:39:53.493Z,10.23
2023-03-18T02:42:42.742Z,9.43
2023-03-18T02:45:44.736Z,9.43
2023-03-18T02:48:39.593Z,11.03
2023-03-18T02:51:29.781Z,9.80
2023-03-18T02:54:20.916Z,11.20
2023-03-18T02:57:09.747Z,13.30
2023-03-18T03:00:01.113Z,9.30
2023-03-18T03:02:51.927Z,8.17
2023-03-18T03:05:41.674Z,8.20
2023-03-18T03:08:31.005Z,9.83
2023-03-18T03:11:21.776Z,7.83
2023-03-18T03:14:17.113Z,7.93
2023-03-18T03:17:09.702Z,8.37
2023-03-18T03:19:59.897Z,9.70
2023-03-18T03:22:49.212Z,7.63
2023-03-18T03:25:40.092Z,8.80
2023-03-18T03:28:29.111Z,12.50
2023-03-18T03:31:18.114Z,9.93
2023-03-18T03:34:06.901Z,8.00
2023-03-18T03:36:56.928Z,9.70
2023-03-18T03:39:49.107Z,9.10
2023-03-18T03:42:37.838Z,10.63
2023-03-18T03:45:27.043Z,9.20
2023-03-18T03:48:16.280Z,8.47
2023-03-18T03:51:05.379Z,10.43
2023-03-18T03:53:55.638Z,8.27
2023-03-18T03:56:45.178Z,10.33
2023-03-18T03:59:33.973Z,10.80
2023-03-18T04:02:53.541Z,10.60
2023-03-18T04:05:44.014Z,8.10
2023-03-18T04:08:33.372Z,10.43
2023-03-18T04:11:26.893Z,12.63
2023-03-18T04:14:16.406Z,10.73
2023-03-18T04:17:05.861Z,8.70
2023-03-18T04:19:54.895Z,10.20
2023-03-18T04:22:46.793Z,10.90
2023-03-18T04:25:37.463Z,11.93
2023-03-18T04:28:27.990Z,9.00
2023-03-18T04:31:16.777Z,11.37
2023-03-18T04:34:05.463Z,10.27
2023-03-18T04:36:55.619Z,11.13
2023-03-18T04:39:46.435Z,9.70
2023-03-18T04:42:35.496Z,7.60
2023-03-18T04:45:26.326Z,10.10
2023-03-18T04:48:18.763Z,8.13
2023-03-18T04:51:09.340Z,11.13
2023-03-18T04:53:58.522Z,13.83
2023-03-18T04:56:51.576Z,12.20
2023-03-18T04:59:40.402Z,9.37
2023-03-18T05:02:31.925Z,11.03
2023-03-18T05:05:21.308Z,7.33
2023-03-18T05:08:12.914Z,8.80
2023-03-18T05:11:02.111Z,7.53
2023-03-18T05:13:52.202Z,6.80
2023-03-18T05:16:43.697Z,8.30
2023-03-18T05:19:34.030Z,11.33
2023-03-18T05:22:36.612Z,11.40
2023-03-18T05:25:36.804Z,9.10
2023-03-18T05:28:26.205Z,7.50
2023-03-18T05:31:41.216Z,11.13
2023-03-18T05:34:29.927Z,7.30
2023-03-18T05:37:20.234Z,10.27
2023-03-18T05:40:19.498Z,8.57
2023-03-18T05:43:26.318Z,8.30
2023-03-18T05:46:19.055Z,8.20
2023-03-18T05:49:28.681Z,8.23
2023-03-18T05:52:38.277Z,7.87
2023-03-18T05:55:33.297Z,9.43
2023-03-18T05:58:22.392Z,8.57
2023-03-18T06:01:16.981Z,10.93
2023-03-18T06:04:07.040Z,7.13
2023-03-18T06:06:57.102Z,7.50
2023-03-18T06:09:47.365Z,9.57
2023-03-18T06:12:36.224Z,7.13
2023-03-18T06:15:25.903Z,6.60
2023-03-18T06:18:15.088Z,8.30
2023-03-18T06:21:07.037Z,8.73
2023-03-18T06:23:57.670Z,7.43
2023-03-18T06:26:49.502Z,9.40
2023-03-18T06:29:39.251Z,9.13
2023-03-18T06:32:34.103Z,10.47
2023-03-18T06:35:23.319Z,10.53
2023-03-18T06:38:14.451Z,10.57
2023-03-18T06:41:04.694Z,7.80
2023-03-18T06:43:59.395Z,9.57
2023-03-18T06:46:51.266Z,8.93
2023-03-18T06:49:39.964Z,8.17
2023-03-18T06:52:37.527Z,9.60
2023-03-18T06:55:32.563Z,10.97
2023-03-18T06:58:21.985Z,6.60
2023-03-18T07:01:26.403Z,11.10
2023-03-18T07:04:16.038Z,7.40
2023-03-18T07:07:05.993Z,6.50
2023-03-18T07:09:56.794Z,10.57
2023-03-18T07:12:45.602Z,8.10
2023-03-18T07:15:34.577Z,7.57
2023-03-18T07:18:25.666Z,9.73
2023-03-18T07:21:14.448Z,10.83
2023-03-18T07:24:03.997Z,7.27
2023-03-18T07:26:53.609Z,8.40
2023-03-18T07:29:42.522Z,8.60
2023-03-18T07:32:32.140Z,9.97
2023-03-18T07:35:22.689Z,7.17
2023-03-18T07:38:13.711Z,8.17
2023-03-18T07:41:02.712Z,11.23
2023-03-18T07:43:51.970Z,8.33
2023-03-18T07:46:41.544Z,7.50
2023-03-18T07:49:30.901Z,7.63
2023-03-18T07:52:21.087Z,9.60
2023-03-18T07:55:10.988Z,8.07
2023-03-18T07:57:59.782Z,8.27
2023-03-18T08:00:49.646Z,6.47
2023-03-18T08:03:38.464Z,7.27
2023-03-18T08:06:27.508Z,8.97
2023-03-18T08:09:17.822Z,7.70
2023-03-18T08:12:07.248Z,8.17
2023-03-18T08:14:56.428Z,8.80
2023-03-18T08:17:45.161Z,8.00
2023-03-18T08:20:33.945Z,6.68
2023-03-18T08:23:22.703Z,8.75
2023-03-18T08:26:13.222Z,10.18
2023-03-18T08:29:02.196Z,5.50
2023-03-18T08:31:51.401Z,7.22
2023-03-18T08:34:40.209Z,7.57
2023-03-18T08:37:29.964Z,6.97
2023-03-18T08:40:20.386Z,6.50
2023-03-18T08:43:11.542Z,9.57
2023-03-18T08:46:00.244Z,8.15
2023-03-18T08:48:48.957Z,6.85
2023-03-18T08:51:38.637Z,7.25
2023-03-18T08:54:27.908Z,7.47
2023-03-18T08:57:17.523Z,6.97
2023-03-18T09:00:09.265Z,6.55
2023-03-18T09:02:58.009Z,5.95
2023-03-18T09:05:49.609Z,7.70
2023-03-18T09:08:39.631Z,6.90
2023-03-18T09:11:29.191Z,7.78
2023-03-18T09:14:18.448Z,7.75
2023-03-18T09:17:09.214Z,11.05
2023-03-18T09:19:57.873Z,7.28
2023-03-18T09:22:47.742Z,7.47
2023-03-18T09:25:36.569Z,7.00
2023-03-18T09:28:25.702Z,7.28
2023-03-18T09:31:15.661Z,7.55
2023-03-18T09:34:07.437Z,6.80
2023-03-18T09:36:58.344Z,7.30
2023-03-18T09:39:47.922Z,9.50
2023-03-18T09:42:47.617Z,5.28
2023-03-18T09:45:45.440Z,7.47
2023-03-18T09:48:53.164Z,8.85
2023-03-18T09:51:52.078Z,7.57
2023-03-18T09:54:44.851Z,7.85
2023-03-18T09:57:38.072Z,7.50
2023-03-18T10:00:31.152Z,7.25
2023-03-18T10:03:29.103Z,6.60
2023-03-18T10:06:19.782Z,5.35
2023-03-18T10:09:16.177Z,6.28
2023-03-18T10:12:14.953Z,6.95
2023-03-18T10:15:13.611Z,8.68
2023-03-18T10:18:06.821Z,6.78
2023-03-18T10:21:09.230Z,7.82
2023-03-18T10:24:10.323Z,6.20
2023-03-18T10:27:10.616Z,5.13
2023-03-18T10:30:05.350Z,7.97
2023-03-18T10:33:05.648Z,10.02
2023-03-18T10:36:00.972Z,6.93
2023-03-18T10:38:51.899Z,6.13
2023-03-18T10:41:43.653Z,9.48
2023-03-18T10:44:37.350Z,5.47
2023-03-18T10:47:29.472Z,6.68
2023-03-18T10:50:20.903Z,7.18
2023-03-18T10:53:19.877Z,7.60
2023-03-18T10:56:10.544Z,9.73
2023-03-18T10:59:00.173Z,6.07
2023-03-18T11:01:56.166Z,5.18
2023-03-18T11:04:52.333Z,9.77
2023-03-18T11:07:56.822Z,4.15
2023-03-18T11:10:47.052Z,7.95
2023-03-18T11:13:35.937Z,7.00
2023-03-18T11:16:33.309Z,6.28
2023-03-18T11:19:39.403Z,7.68
2023-03-18T11:22:29.161Z,7.95
2023-03-18T11:25:20.180Z,6.45
2023-03-18T11:28:21.109Z,6.45
2023-03-18T11:31:17.891Z,6.65
2023-03-18T11:34:10.262Z,7.20
2023-03-18T11:37:04.843Z,9.95
2023-03-18T11:39:59.015Z,7.45
2023-03-18T11:42:49.672Z,6.50
2023-03-18T11:45:45.330Z,8.73
2023-03-18T11:48:37.588Z,6.68
2023-03-18T11:51:44.705Z,7.97
2023-03-18T11:54:52.457Z,7.68
2023-03-18T11:57:52.482Z,7.57
2023-03-18T12:00:46.701Z,8.25
2023-03-18T12:04:22.041Z,9.43
2023-03-18T12:07:43.055Z,8.90
2023-03-18T12:10:37.584Z,9.32
2023-03-18T12:13:41.165Z,7.65
2023-03-18T12:16:43.388Z,7.97
2023-03-18T12:19:58.980Z,6.60
2023-03-18T12:23:02.271Z,10.02
2023-03-18T12:26:02.336Z,6.70
2023-03-18T12:29:05.203Z,8.90
2023-03-18T12:32:11.209Z,9.35
2023-03-18T12:35:26.077Z,9.02
2023-03-18T12:38:41.958Z,5.75
2023-03-18T12:41:41.798Z,9.65
2023-03-18T12:44:47.807Z,9.40
2023-03-18T12:47:42.256Z,6.13
2023-03-18T12:50:36.382Z,7.40
2023-03-18T12:53:31.992Z,8.82
2023-03-18T12:56:23.787Z,9.63
2023-03-18T12:59:20.868Z,12.93
2023-03-18T13:02:23.042Z,6.57
2023-03-18T13:05:21.810Z,6.90
2023-03-18T13:08:47.364Z,6.90
2023-03-18T13:11:56.014Z,6.43
2023-03-18T13:14:53.115Z,5.85
2023-03-18T13:17:44.695Z,5.97
2023-03-18T13:20:37.896Z,7.38
2023-03-18T13:24:00.674Z,8.85
2023-03-18T13:27:06.929Z,7.43
2023-03-18T13:30:08.565Z,7.55
2023-03-18T13:33:14.639Z,6.55
2023-03-18T13:36:51.632Z,7.65
2023-03-18T13:39:54.148Z,6.38
2023-03-18T13:42:44.673Z,7.25
2023-03-18T13:45:39.192Z,6.93
2023-03-18T13:48:32.091Z,6.60
2023-03-18T13:51:42.096Z,9.48
2023-03-18T13:54:36.087Z,6.38
2023-03-18T13:57:49.524Z,6.45
2023-03-18T14:00:42.313Z,7.60
2023-03-18T14:03:33.310Z,6.53
2023-03-18T14:06:26.596Z,11.30
2023-03-18T14:09:47.355Z,7.18
2023-03-18T14:12:42.029Z,8.18
2023-03-18T14:15:42.919Z,8.15
2023-03-18T14:18:37.662Z,11.30
2023-03-18T14:21:29.168Z,9.45
2023-03-18T14:24:25.211Z,7.82
2023-03-18T14:27:20.393Z,9.38
2023-03-18T14:30:41.477Z,8.05
2023-03-18T14:33:34.995Z,7.00
2023-03-18T14:36:41.394Z,6.35
2023-03-18T14:39:34.580Z,7.38
2023-03-18T14:42:37.215Z,8.82
2023-03-18T14:45:29.404Z,10.23
2023-03-18T14:48:21.585Z,8.30
2023-03-18T14:51:16.482Z,10.15
2023-03-18T14:54:07.140Z,7.50
2023-03-18T14:56:58.092Z,7.10
2023-03-18T14:59:46.862Z,8.80
2023-03-18T15:02:39.863Z,7.15
2023-03-18T15:05:34.811Z,7.75
2023-03-18T15:08:41.134Z,7.50
2023-03-18T15:11:39.801Z,7.25
2023-03-18T15:14:31.244Z,9.20
2023-03-18T15:17:19.980Z,8.18
2023-03-18T15:20:14.372Z,6.40
2023-03-18T15:23:04.383Z,7.80
2023-03-18T15:25:54.680Z,9.13
2023-03-18T15:28:47.960Z,8.60
2023-03-18T15:31:41.688Z,12.48
2023-03-18T15:34:33.718Z,8.98
2023-03-18T15:37:34.255Z,11.38
2023-03-18T15:40:32.368Z,8.98
2023-03-18T15:43:35.594Z,9.40
2023-03-18T15:46:27.334Z,7.32
2023-03-18T15:49:16.570Z,7.60
2023-03-18T15:52:10.120Z,10.48
2023-03-18T15:54:59.286Z,11.55
2023-03-18T15:57:48.206Z,9.60
2023-03-18T16:00:38.846Z,13.80
2023-03-18T16:03:31.466Z,14.70
2023-03-18T16:06:22.973Z,8.85
2023-03-18T16:09:20.357Z,10.82
2023-03-18T16:12:14.695Z,9.75
2023-03-18T16:15:07.180Z,13.27
2023-03-18T16:17:59.021Z,10.57
2023-03-18T16:20:48.885Z,12.77
2023-03-18T16:23:38.059Z,11.50
2023-03-18T16:26:27.730Z,8.65
2023-03-18T16:29:18.876Z,10.77
2023-03-18T16:32:09.945Z,12.02
2023-03-18T16:35:00.924Z,10.65
2023-03-18T16:37:51.084Z,10.25
2023-03-18T16:40:40.137Z,8.68
2023-03-18T16:43:32.019Z,12.13
2023-03-18T16:46:21.489Z,10.73
2023-03-18T16:49:17.431Z,9.07
2023-03-18T16:52:08.240Z,11.20
2023-03-18T16:54:58.157Z,9.60
2023-03-18T16:57:50.877Z,13.77
2023-03-18T17:00:40.101Z,8.80
2023-03-18T17:03:29.584Z,12.85
2023-03-18T17:06:18.969Z,10.85
2023-03-18T17:09:09.928Z,11.40
2023-03-18T17:12:02.444Z,9.98
2023-03-18T17:14:55.192Z,11.77
2023-03-18T17:17:45.911Z,12.45
2023-03-18T17:20:35.200Z,11.93
2023-03-18T17:23:26.897Z,10.65
2023-03-18T17:26:17.444Z,10.07
2023-03-18T17:29:06.417Z,12.77
2023-03-18T17:31:56.222Z,12.13
2023-03-18T17:34:48.148Z,13.07
2023-03-18T17:37:36.834Z,13.68
2023-03-18T17:40:29.900Z,12.35
2023-03-18T17:43:26.471Z,14.38
2023-03-18T17:46:15.195Z,13.02
2023-03-18T17:49:11.800Z,18.50
2023-03-18T17:52:01.025Z,15.75
2023-03-18T17:54:50.103Z,16.73
2023-03-18T17:57:38.952Z,13.63
2023-03-18T18:00:29.390Z,16.10
2023-03-18T18:03:24.350Z,15.35
2023-03-18T18:06:18.880Z,19.38
2023-03-18T18:09:07.830Z,17.88
2023-03-18T18:11:56.612Z,16.45
2023-03-18T18:14:46.501Z,17.00
2023-03-18T18:17:37.330Z,17.25
2023-03-18T18:20:26.505Z,17.92
2023-03-18T18:23:24.985Z,17.65
2023-03-18T18:26:16.244Z,21.20
2023-03-18T18:29:11.549Z,19.25
2023-03-18T18:32:00.279Z,16.63
2023-03-18T18:34:50.951Z,18.55
2023-03-18T18:37:39.672Z,20.00
2023-03-18T18:40:28.398Z,16.88
2023-03-18T18:43:17.124Z,16.35
2023-03-18T18:46:11.986Z,19.13
2023-03-18T18:49:01.053Z,17.73
2023-03-18T18:51:53.489Z,21.50
2023-03-18T18:54:42.865Z,19.23
2023-03-18T18:57:33.415Z,22.33
2023-03-18T19:00:24.612Z,18.98
2023-03-18T19:03:16.153Z,21.30
2023-03-18T19:06:06.955Z,23.83
2023-03-18T19:08:57.854Z,24.40
2023-03-18T19:11:47.052Z,23.02
2023-03-18T19:14:35.783Z,24.13
2023-03-18T19:17:25.720Z,26.27
2023-03-18T19:20:32.462Z,25.33
2023-03-18T19:23:25.964Z,24.27
2023-03-18T19:26:17.984Z,24.20
2023-03-18T19:29:07.142Z,25.35
2023-03-18T19:31:56.026Z,25.55
2023-03-18T19:34:45.780Z,30.30
2023-03-18T19:37:36.476Z,30.05
2023-03-18T19:40:30.381Z,28.88
2023-03-18T19:43:23.176Z,26.63
2023-03-18T19:46:17.864Z,25.67
2023-03-18T19:49:13.924Z,23.00
2023-03-18T19:52:03.821Z,31.48
2023-03-18T19:54:53.571Z,25.60
2023-03-18T19:57:44.823Z,27.70
2023-03-18T20:00:35.180Z,26.75
2023-03-18T20:03:26.791Z,26.65
2023-03-18T20:06:16.798Z,24.20
2023-03-18T20:09:05.645Z,27.98
2023-03-18T20:11:59.726Z,24.05
2023-03-18T20:14:48.916Z,24.95
2023-03-18T20:17:41.284Z,30.08
2023-03-18T20:20:32.207Z,24.98
2023-03-18T20:23:23.767Z,26.27
2023-03-18T20:26:12.765Z,26.80
2023-03-18T20:29:01.736Z,25.75
2023-03-18T20:31:50.595Z,26.17
2023-03-18T20:34:41.725Z,22.77
2023-03-18T20:37:34.825Z,28.40
2023-03-18T20:40:25.899Z,26.90
2023-03-18T20:43:16.315Z,25.92
2023-03-18T20:46:05.115Z,25.30
2023-03-18T20:48:53.863Z,22.25
2023-03-18T20:51:44.403Z,27.15
2023-03-18T20:54:33.454Z,23.55
2023-03-18T20:57:22.547Z,25.45
2023-03-18T21:00:17.014Z,22.02
2023-03-18T21:03:06.418Z,26.52
2023-03-18T21:05:57.506Z,25.17
2023-03-18T21:08:47.786Z,24.02
2023-03-18T21:11:37.349Z,28.10
2023-03-18T21:14:26.753Z,24.83
2023-03-18T21:17:20.256Z,22.02
2023-03-18T21:20:22.181Z,25.15
2023-03-18T21:23:21.165Z,29.55
2023-03-18T21:26:12.081Z,25.80
2023-03-18T21:29:01.212Z,22.48
2023-03-18T21:31:50.004Z,27.38
2023-03-18T21:34:38.768Z,25.58
2023-03-18T21:37:28.642Z,22.38
2023-03-18T21:40:19.894Z,27.75
2023-03-18T21:43:28.374Z,27.45
2023-03-18T21:46:19.877Z,28.73
2023-03-18T21:49:08.614Z,27.67
2023-03-18T21:51:57.546Z,25.50
2023-03-18T21:54:47.342Z,29.05
2023-03-18T21:57:37.235Z,25.98
2023-03-18T22:00:27.647Z,26.58
2023-03-18T22:03:18.461Z,26.70
2023-03-18T22:06:07.886Z,27.83
2023-03-18T22:08:58.014Z,31.05
2023-03-18T22:11:46.759Z,27.02
2023-03-18T22:14:35.587Z,29.85
2023-03-18T22:17:28.305Z,28.65
2023-03-18T22:20:17.418Z,27.83
2023-03-18T22:23:18.543Z,24.13
2023-03-18T22:26:07.421Z,24.42
2023-03-18T22:28:56.111Z,26.45
2023-03-18T22:31:45.395Z,26.08
2023-03-18T22:34:35.675Z,30.00
2023-03-18T22:37:26.630Z,27.08
2023-03-18T22:40:19.336Z,25.08
2023-03-18T22:43:25.166Z,26.05
2023-03-18T22:46:14.134Z,28.35
2023-03-18T22:49:08.124Z,26.73
2023-03-18T22:51:58.293Z,25.73
2023-03-18T22:54:47.061Z,27.05
2023-03-18T22:57:35.809Z,29.45
2023-03-18T23:00:27.468Z,29.77
2023-03-18T23:03:18.898Z,24.25
2023-03-18T23:06:09.395Z,26.10
2023-03-18T23:08:59.554Z,24.85
2023-03-18T23:11:48.258Z,25.25
2023-03-18T23:14:37.300Z,26.67
2023-03-18T23:17:27.966Z,28.50
2023-03-18T23:20:18.555Z,28.48
2023-03-18T23:23:07.354Z,24.60
2023-03-18T23:25:57.827Z,28.15
2023-03-18T23:28:46.722Z,31.60
2023-03-18T23:31:35.604Z,28.90
2023-03-18T23:34:24.523Z,28.05
2023-03-18T23:37:13.983Z,29.45
2023-03-18T23:40:03.232Z,28.50
2023-03-18T23:42:53.407Z,29.63
2023-03-18T23:45:42.164Z,30.95
2023-03-18T23:48:32.115Z,30.77
2023-03-18T23:51:20.734Z,30.35
2023-03-18T23:54:09.705Z,30.55
2023-03-18T23:56:58.724Z,32.63
2023-03-18T23:59:48.772Z,37.20
